sensor_id;sensor_type;location;lat;lon;timestamp;P1;durP1;ratioP1;P2;durP2;ratioP2
37517;SDS011;23366;52.498;13.446;2023-11-21T00:01:17;4.75;;;3.42;;
37517;SDS011;23366;52.498;13.446;2023-11-21T00:03:43;26.05;;;4.28;;
37517;SDS011;23366;52.498;13.446;2023-11-21T00:06:09;7.97;;;4.25;;
37517;SDS011;23366;52.498;13.446;2023-11-21T00:08:35;9.98;;;5.05;;
37517;SDS011;23366;52.498;13.446;2023-11-21T00:11:04;10.95;;;4.65;;
37517;SDS011;23366;52.498;13.446;2023-11-21T00:13:31;9.25;;;5.60;;
37517;SDS011;23366;52.498;13.446;2023-11-21T00:15:57;13.55;;;5.70;;
37517;SDS011;23366;52.498;13.446;2023-11-21T00:18:23;9.57;;;5.75;;
37517;SDS011;23366;52.498;13.446;2023-11-21T00:20:48;12.60;;;6.25;;
37517;SDS011;23366;52.498;13.446;2023-11-21T00:23:14;12.23;;;7.57;;
37517;SDS011;23366;52.498;13.446;2023-11-21T00:25:40;15.15;;;8.10;;
37517;SDS011;23366;52.498;13.446;2023-11-21T00:28:06;15.40;;;8.20;;
37517;SDS011;23366;52.498;13.446;2023-11-21T00:30:32;17.75;;;7.10;;
37517;SDS011;23366;52.498;13.446;2023-11-21T00:32:58;17.08;;;8.85;;
37517;SDS011;23366;52.498;13.446;2023-11-21T00:35:24;19.85;;;9.15;;
37517;SDS011;23366;52.498;13.446;2023-11-21T00:37:50;14.13;;;7.88;;
37517;SDS011;23366;52.498;13.446;2023-11-21T00:40:17;15.45;;;8.70;;
37517;SDS011;23366;52.498;13.446;2023-11-21T00:42:47;23.75;;;9.95;;
37517;SDS011;23366;52.498;13.446;2023-11-21T00:45:13;19.75;;;9.18;;
37517;SDS011;23366;52.498;13.446;2023-11-21T00:47:39;30.02;;;11.32;;
37517;SDS011;23366;52.498;13.446;2023-11-21T00:50:05;21.08;;;11.18;;
37517;SDS011;23366;52.498;13.446;2023-11-21T00:52:32;23.60;;;12.05;;
37517;SDS011;23366;52.498;13.446;2023-11-21T00:54:58;26.38;;;12.30;;
37517;SDS011;23366;52.498;13.446;2023-11-21T00:57:25;28.00;;;11.48;;
37517;SDS011;23366;52.498;13.446;2023-11-21T00:59:51;25.70;;;10.00;;
37517;SDS011;23366;52.498;13.446;2023-11-21T01:02:17;19.67;;;8.93;;
37517;SDS011;23366;52.498;13.446;2023-11-21T01:04:43;23.85;;;10.07;;
37517;SDS011;23366;52.498;13.446;2023-11-21T01:07:09;20.05;;;9.50;;
37517;SDS011;23366;52.498;13.446;2023-11-21T01:09:35;30.65;;;11.35;;
37517;SDS011;23366;52.498;13.446;2023-11-21T01:12:01;28.33;;;12.45;;
37517;SDS011;23366;52.498;13.446;2023-11-21T01:14:27;28.48;;;10.90;;
37517;SDS011;23366;52.498;13.446;2023-11-21T01:16:53;29.00;;;11.45;;
37517;SDS011;23366;52.498;13.446;2023-11-21T01:19:19;24.13;;;9.90;;
37517;SDS011;23366;52.498;13.446;2023-11-21T01:21:45;29.63;;;10.88;;
37517;SDS011;23366;52.498;13.446;2023-11-21T01:24:12;32.10;;;11.07;;
37517;SDS011;23366;52.498;13.446;2023-11-21T01:26:37;24.05;;;12.02;;
37517;SDS011;23366;52.498;13.446;2023-11-21T01:29:03;40.05;;;13.52;;
37517;SDS011;23366;52.498;13.446;2023-11-21T01:31:29;33.17;;;13.48;;
37517;SDS011;23366;52.498;13.446;2023-11-21T01:33:56;38.92;;;15.93;;
37517;SDS011;23366;52.498;13.446;2023-11-21T01:36:22;43.88;;;15.38;;
37517;SDS011;23366;52.498;13.446;2023-11-21T01:38:48;48.03;;;17.80;;
37517;SDS011;23366;52.498;13.446;2023-11-21T01:41:14;51.22;;;17.15;;
37517;SDS011;23366;52.498;13.446;2023-11-21T01:43:40;44.65;;;16.58;;
37517;SDS011;23366;52.498;13.446;2023-11-21T01:46:06;45.13;;;17.08;;
37517;SDS011;23366;52.498;13.446;2023-11-21T01:48:33;35.67;;;13.70;;
37517;SDS011;23366;52.498;13.446;2023-11-21T01:51:00;49.10;;;14.60;;
37517;SDS011;23366;52.498;13.446;2023-11-21T01:53:26;37.90;;;15.05;;
37517;SDS011;23366;52.498;13.446;2023-11-21T01:55:53;35.90;;;13.00;;
37517;SDS011;23366;52.498;13.446;2023-11-21T01:58:19;33.60;;;13.43;;
37517;SDS011;23366;52.498;13.446;2023-11-21T02:00:45;29.55;;;12.32;;
37517;SDS011;23366;52.498;13.446;2023-11-21T02:03:11;38.10;;;11.93;;
37517;SDS011;23366;52.498;13.446;2023-11-21T02:05:37;32.80;;;13.30;;
37517;SDS011;23366;52.498;13.446;2023-11-21T02:08:03;32.85;;;11.85;;
37517;SDS011;23366;52.498;13.446;2023-11-21T02:10:29;25.95;;;10.60;;
37517;SDS011;23366;52.498;13.446;2023-11-21T02:12:56;33.17;;;9.98;;
37517;SDS011;23366;52.498;13.446;2023-11-21T02:15:23;28.63;;;11.40;;
37517;SDS011;23366;52.498;13.446;2023-11-21T02:17:52;39.60;;;11.07;;
37517;SDS011;23366;52.498;13.446;2023-11-21T02:20:18;30.38;;;10.35;;
37517;SDS011;23366;52.498;13.446;2023-11-21T02:22:54;20.40;;;7.32;;
37517;SDS011;23366;52.498;13.446;2023-11-21T02:25:28;23.58;;;8.77;;
37517;SDS011;23366;52.498;13.446;2023-11-21T02:27:54;28.67;;;9.55;;
37517;SDS011;23366;52.498;13.446;2023-11-21T02:30:20;25.83;;;9.48;;
37517;SDS011;23366;52.498;13.446;2023-11-21T02:32:47;22.38;;;9.77;;
37517;SDS011;23366;52.498;13.446;2023-11-21T02:35:13;31.80;;;10.45;;
37517;SDS011;23366;52.498;13.446;2023-11-21T02:37:40;26.80;;;8.32;;
37517;SDS011;23366;52.498;13.446;2023-11-21T02:40:08;21.33;;;8.40;;
37517;SDS011;23366;52.498;13.446;2023-11-21T02:42:35;23.40;;;7.95;;
37517;SDS011;23366;52.498;13.446;2023-11-21T02:45:01;21.95;;;8.70;;
37517;SDS011;23366;52.498;13.446;2023-11-21T02:47:26;29.77;;;11.40;;
37517;SDS011;23366;52.498;13.446;2023-11-21T02:49:53;17.17;;;6.90;;
37517;SDS011;23366;52.498;13.446;2023-11-21T02:52:19;17.58;;;7.05;;
37517;SDS011;23366;52.498;13.446;2023-11-21T02:54:45;18.52;;;8.45;;
37517;SDS011;23366;52.498;13.446;2023-11-21T02:57:11;16.83;;;7.30;;
37517;SDS011;23366;52.498;13.446;2023-11-21T02:59:38;21.73;;;7.88;;
37517;SDS011;23366;52.498;13.446;2023-11-21T03:02:04;16.58;;;6.97;;
37517;SDS011;23366;52.498;13.446;2023-11-21T03:04:33;16.70;;;7.32;;
37517;SDS011;23366;52.498;13.446;2023-11-21T03:06:59;12.25;;;7.25;;
37517;SDS011;23366;52.498;13.446;2023-11-21T03:09:25;13.57;;;5.95;;
37517;SDS011;23366;52.498;13.446;2023-11-21T03:11:55;15.32;;;7.65;;
37517;SDS011;23366;52.498;13.446;2023-11-21T03:14:21;17.33;;;6.82;;
37517;SDS011;23366;52.498;13.446;2023-11-21T03:16:47;13.95;;;6.57;;
37517;SDS011;23366;52.498;13.446;2023-11-21T03:19:14;15.95;;;6.88;;
37517;SDS011;23366;52.498;13.446;2023-11-21T03:21:40;13.10;;;6.53;;
37517;SDS011;23366;52.498;13.446;2023-11-21T03:24:06;19.85;;;8.63;;
37517;SDS011;23366;52.498;13.446;2023-11-21T03:26:32;14.50;;;6.68;;
37517;SDS011;23366;52.498;13.446;2023-11-21T03:28:58;12.10;;;6.82;;
37517;SDS011;23366;52.498;13.446;2023-11-21T03:31:24;14.48;;;6.82;;
37517;SDS011;23366;52.498;13.446;2023-11-21T03:33:50;13.40;;;6.20;;
37517;SDS011;23366;52.498;13.446;2023-11-21T03:36:17;12.65;;;6.28;;
37517;SDS011;23366;52.498;13.446;2023-11-21T03:38:43;12.75;;;7.22;;
37517;SDS011;23366;52.498;13.446;2023-11-21T03:41:09;9.02;;;5.00;;
37517;SDS011;23366;52.498;13.446;2023-11-21T03:43:38;10.80;;;6.40;;
37517;SDS011;23366;52.498;13.446;2023-11-21T03:46:04;12.05;;;5.75;;
37517;SDS011;23366;52.498;13.446;2023-11-21T03:48:30;12.50;;;7.10;;
37517;SDS011;23366;52.498;13.446;2023-11-21T03:50:58;8.93;;;5.13;;
37517;SDS011;23366;52.498;13.446;2023-11-21T03:53:24;11.90;;;5.82;;
37517;SDS011;23366;52.498;13.446;2023-11-21T03:55:50;9.77;;;5.63;;
37517;SDS011;23366;52.498;13.446;2023-11-21T03:58:16;11.93;;;6.15;;
37517;SDS011;23366;52.498;13.446;2023-11-21T04:00:42;9.18;;;6.00;;
37517;SDS011;23366;52.498;13.446;2023-11-21T04:03:07;8.70;;;5.75;;
37517;SDS011;23366;52.498;13.446;2023-11-21T04:05:33;12.32;;;6.32;;
37517;SDS011;23366;52.498;13.446;2023-11-21T04:07:59;9.90;;;5.55;;
37517;SDS011;23366;52.498;13.446;2023-11-21T04:10:26;10.65;;;4.80;;
37517;SDS011;23366;52.498;13.446;2023-11-21T04:12:51;11.20;;;6.47;;
37517;SDS011;23366;52.498;13.446;2023-11-21T04:15:17;11.70;;;4.63;;
37517;SDS011;23366;52.498;13.446;2023-11-21T04:17:43;9.43;;;5.13;;
37517;SDS011;23366;52.498;13.446;2023-11-21T04:20:10;9.68;;;5.28;;
37517;SDS011;23366;52.498;13.446;2023-11-21T04:22:37;9.90;;;6.10;;
37517;SDS011;23366;52.498;13.446;2023-11-21T04:25:05;11.40;;;4.47;;
37517;SDS011;23366;52.498;13.446;2023-11-21T04:27:31;5.95;;;3.78;;
37517;SDS011;23366;52.498;13.446;2023-11-21T04:29:57;9.52;;;5.35;;
37517;SDS011;23366;52.498;13.446;2023-11-21T04:32:23;9.68;;;5.95;;
37517;SDS011;23366;52.498;13.446;2023-11-21T04:34:49;7.50;;;5.07;;
37517;SDS011;23366;52.498;13.446;2023-11-21T04:37:15;8.23;;;4.57;;
37517;SDS011;23366;52.498;13.446;2023-11-21T04:39:41;7.68;;;3.53;;
37517;SDS011;23366;52.498;13.446;2023-11-21T04:42:07;6.93;;;3.95;;
37517;SDS011;23366;52.498;13.446;2023-11-21T04:44:33;7.55;;;4.72;;
37517;SDS011;23366;52.498;13.446;2023-11-21T04:46:59;3.53;;;2.92;;
37517;SDS011;23366;52.498;13.446;2023-11-21T04:49:25;9.02;;;4.85;;
37517;SDS011;23366;52.498;13.446;2023-11-21T04:51:51;9.00;;;3.63;;
37517;SDS011;23366;52.498;13.446;2023-11-21T04:54:17;10.32;;;4.82;;
37517;SDS011;23366;52.498;13.446;2023-11-21T04:56:43;6.75;;;4.47;;
37517;SDS011;23366;52.498;13.446;2023-11-21T04:59:09;8.73;;;3.65;;
37517;SDS011;23366;52.498;13.446;2023-11-21T05:01:35;7.05;;;4.55;;
37517;SDS011;23366;52.498;13.446;2023-11-21T05:04:01;7.15;;;4.95;;
37517;SDS011;23366;52.498;13.446;2023-11-21T05:06:27;9.40;;;3.85;;
37517;SDS011;23366;52.498;13.446;2023-11-21T05:08:53;7.57;;;3.88;;
37517;SDS011;23366;52.498;13.446;2023-11-21T05:11:24;6.85;;;3.72;;
37517;SDS011;23366;52.498;13.446;2023-11-21T05:13:49;7.47;;;3.75;;
37517;SDS011;23366;52.498;13.446;2023-11-21T05:16:15;9.18;;;3.97;;
37517;SDS011;23366;52.498;13.446;2023-11-21T05:18:41;8.25;;;4.15;;
37517;SDS011;23366;52.498;13.446;2023-11-21T05:21:07;9.57;;;5.35;;
37517;SDS011;23366;52.498;13.446;2023-11-21T05:23:34;9.90;;;3.63;;
37517;SDS011;23366;52.498;13.446;2023-11-21T05:26:01;8.38;;;4.25;;
37517;SDS011;23366;52.498;13.446;2023-11-21T05:28:27;6.72;;;3.17;;
37517;SDS011;23366;52.498;13.446;2023-11-21T05:30:53;8.27;;;4.22;;
37517;SDS011;23366;52.498;13.446;2023-11-21T05:33:19;9.00;;;3.78;;
37517;SDS011;23366;52.498;13.446;2023-11-21T05:35:45;8.10;;;4.20;;
37517;SDS011;23366;52.498;13.446;2023-11-21T05:38:13;7.75;;;3.67;;
37517;SDS011;23366;52.498;13.446;2023-11-21T05:40:39;6.70;;;4.03;;
37517;SDS011;23366;52.498;13.446;2023-11-21T05:43:05;5.05;;;3.10;;
37517;SDS011;23366;52.498;13.446;2023-11-21T05:45:31;7.18;;;4.55;;
37517;SDS011;23366;52.498;13.446;2023-11-21T05:47:58;9.02;;;4.40;;
37517;SDS011;23366;52.498;13.446;2023-11-21T05:50:24;6.70;;;4.15;;
37517;SDS011;23366;52.498;13.446;2023-11-21T05:52:50;6.32;;;3.60;;
37517;SDS011;23366;52.498;13.446;2023-11-21T05:55:16;6.25;;;3.72;;
37517;SDS011;23366;52.498;13.446;2023-11-21T05:57:42;7.03;;;3.92;;
37517;SDS011;23366;52.498;13.446;2023-11-21T06:00:10;7.20;;;3.88;;
37517;SDS011;23366;52.498;13.446;2023-11-21T06:02:39;7.25;;;3.65;;
37517;SDS011;23366;52.498;13.446;2023-11-21T06:05:08;8.93;;;4.22;;
37517;SDS011;23366;52.498;13.446;2023-11-21T06:07:35;7.50;;;3.70;;
37517;SDS011;23366;52.498;13.446;2023-11-21T06:10:02;5.72;;;3.92;;
37517;SDS011;23366;52.498;13.446;2023-11-21T06:12:30;7.95;;;4.47;;
37517;SDS011;23366;52.498;13.446;2023-11-21T06:15:00;7.82;;;3.97;;
37517;SDS011;23366;52.498;13.446;2023-11-21T06:17:29;8.18;;;4.20;;
37517;SDS011;23366;52.498;13.446;2023-11-21T06:20:00;7.68;;;4.07;;
37517;SDS011;23366;52.498;13.446;2023-11-21T06:22:28;9.13;;;5.13;;
37517;SDS011;23366;52.498;13.446;2023-11-21T06:24:55;11.20;;;4.93;;
37517;SDS011;23366;52.498;13.446;2023-11-21T06:27:21;8.35;;;4.03;;
37517;SDS011;23366;52.498;13.446;2023-11-21T06:29:49;8.68;;;4.07;;
37517;SDS011;23366;52.498;13.446;2023-11-21T06:32:16;6.05;;;3.25;;
37517;SDS011;23366;52.498;13.446;2023-11-21T06:34:42;5.90;;;3.45;;
37517;SDS011;23366;52.498;13.446;2023-11-21T06:37:08;7.10;;;3.60;;
37517;SDS011;23366;52.498;13.446;2023-11-21T06:39:34;6.35;;;3.17;;
37517;SDS011;23366;52.498;13.446;2023-11-21T06:42:00;7.00;;;4.18;;
37517;SDS011;23366;52.498;13.446;2023-11-21T06:44:26;6.93;;;4.35;;
37517;SDS011;23366;52.498;13.446;2023-11-21T06:46:54;5.00;;;3.20;;
37517;SDS011;23366;52.498;13.446;2023-11-21T06:49:20;5.25;;;2.75;;
37517;SDS011;23366;52.498;13.446;2023-11-21T06:51:45;5.65;;;3.05;;
37517;SDS011;23366;52.498;13.446;2023-11-21T06:54:12;13.77;;;3.50;;
37517;SDS011;23366;52.498;13.446;2023-11-21T06:56:39;3.95;;;2.72;;
37517;SDS011;23366;52.498;13.446;2023-11-21T06:59:06;6.88;;;3.47;;
37517;SDS011;23366;52.498;13.446;2023-11-21T07:01:32;5.80;;;2.83;;
37517;SDS011;23366;52.498;13.446;2023-11-21T07:04:04;4.80;;;3.08;;
37517;SDS011;23366;52.498;13.446;2023-11-21T07:06:30;5.65;;;3.30;;
37517;SDS011;23366;52.498;13.446;2023-11-21T07:08:56;3.90;;;2.13;;
37517;SDS011;23366;52.498;13.446;2023-11-21T07:11:23;5.35;;;3.50;;
37517;SDS011;23366;52.498;13.446;2023-11-21T07:13:50;7.15;;;3.22;;
37517;SDS011;23366;52.498;13.446;2023-11-21T07:16:17;6.57;;;3.45;;
37517;SDS011;23366;52.498;13.446;2023-11-21T07:18:43;4.85;;;3.38;;
37517;SDS011;23366;52.498;13.446;2023-11-21T07:21:09;5.25;;;3.03;;
37517;SDS011;23366;52.498;13.446;2023-11-21T07:23:37;5.55;;;3.03;;
37517;SDS011;23366;52.498;13.446;2023-11-21T07:26:02;2.85;;;2.15;;
37517;SDS011;23366;52.498;13.446;2023-11-21T07:28:33;4.72;;;2.83;;
37517;SDS011;23366;52.498;13.446;2023-11-21T07:30:59;4.97;;;3.10;;
37517;SDS011;23366;52.498;13.446;2023-11-21T07:33:25;11.75;;;3.10;;
37517;SDS011;23366;52.498;13.446;2023-11-21T07:35:51;4.70;;;3.47;;
37517;SDS011;23366;52.498;13.446;2023-11-21T07:38:17;5.38;;;2.67;;
37517;SDS011;23366;52.498;13.446;2023-11-21T07:40:43;3.53;;;2.13;;
37517;SDS011;23366;52.498;13.446;2023-11-21T07:43:09;3.83;;;2.47;;
37517;SDS011;23366;52.498;13.446;2023-11-21T07:45:35;5.45;;;3.08;;
37517;SDS011;23366;52.498;13.446;2023-11-21T07:48:01;5.68;;;3.03;;
37517;SDS011;23366;52.498;13.446;2023-11-21T07:50:28;5.72;;;2.97;;
37517;SDS011;23366;52.498;13.446;2023-11-21T07:52:55;5.75;;;2.03;;
37517;SDS011;23366;52.498;13.446;2023-11-21T07:55:21;4.78;;;2.70;;
37517;SDS011;23366;52.498;13.446;2023-11-21T07:57:46;5.72;;;2.15;;
37517;SDS011;23366;52.498;13.446;2023-11-21T08:00:12;4.30;;;2.97;;
37517;SDS011;23366;52.498;13.446;2023-11-21T08:02:40;4.47;;;2.90;;
37517;SDS011;23366;52.498;13.446;2023-11-21T08:05:07;5.30;;;2.70;;
37517;SDS011;23366;52.498;13.446;2023-11-21T08:07:33;3.40;;;2.28;;
37517;SDS011;23366;52.498;13.446;2023-11-21T08:09:59;7.82;;;2.08;;
37517;SDS011;23366;52.498;13.446;2023-11-21T08:12:25;7.70;;;2.33;;
37517;SDS011;23366;52.498;13.446;2023-11-21T08:14:52;7.72;;;3.75;;
37517;SDS011;23366;52.498;13.446;2023-11-21T08:17:18;7.45;;;3.35;;
37517;SDS011;23366;52.498;13.446;2023-11-21T08:19:48;10.10;;;2.58;;
37517;SDS011;23366;52.498;13.446;2023-11-21T08:22:16;7.43;;;3.58;;
37517;SDS011;23366;52.498;13.446;2023-11-21T08:24:43;6.57;;;2.50;;
37517;SDS011;23366;52.498;13.446;2023-11-21T08:27:09;5.25;;;2.75;;
37517;SDS011;23366;52.498;13.446;2023-11-21T08:29:35;5.75;;;3.22;;
37517;SDS011;23366;52.498;13.446;2023-11-21T08:32:01;5.80;;;3.38;;
37517;SDS011;23366;52.498;13.446;2023-11-21T08:34:27;6.57;;;3.28;;
37517;SDS011;23366;52.498;13.446;2023-11-21T08:36:53;6.38;;;3.42;;
37517;SDS011;23366;52.498;13.446;2023-11-21T08:39:20;11.77;;;4.80;;
37517;SDS011;23366;52.498;13.446;2023-11-21T08:41:49;16.15;;;4.10;;
37517;SDS011;23366;52.498;13.446;2023-11-21T08:44:15;8.98;;;3.22;;
37517;SDS011;23366;52.498;13.446;2023-11-21T08:46:42;10.68;;;3.92;;
37517;SDS011;23366;52.498;13.446;2023-11-21T08:49:10;9.73;;;3.65;;
37517;SDS011;23366;52.498;13.446;2023-11-21T08:51:36;7.93;;;4.03;;
37517;SDS011;23366;52.498;13.446;2023-11-21T08:54:02;8.45;;;3.92;;
37517;SDS011;23366;52.498;13.446;2023-11-21T08:56:29;11.30;;;3.22;;
37517;SDS011;23366;52.498;13.446;2023-11-21T08:58:55;13.48;;;5.32;;
37517;SDS011;23366;52.498;13.446;2023-11-21T09:01:22;14.82;;;4.18;;
37517;SDS011;23366;52.498;13.446;2023-11-21T09:03:48;13.63;;;4.70;;
37517;SDS011;23366;52.498;13.446;2023-11-21T09:06:15;5.65;;;2.97;;
37517;SDS011;23366;52.498;13.446;2023-11-21T09:08:41;11.25;;;3.92;;
37517;SDS011;23366;52.498;13.446;2023-11-21T09:11:07;7.07;;;3.50;;
37517;SDS011;23366;52.498;13.446;2023-11-21T09:13:33;10.95;;;4.40;;
37517;SDS011;23366;52.498;13.446;2023-11-21T09:15:59;7.22;;;4.22;;
37517;SDS011;23366;52.498;13.446;2023-11-21T09:18:25;10.90;;;5.57;;
37517;SDS011;23366;52.498;13.446;2023-11-21T09:20:51;14.23;;;4.97;;
37517;SDS011;23366;52.498;13.446;2023-11-21T09:23:18;13.45;;;3.97;;
37517;SDS011;23366;52.498;13.446;2023-11-21T09:25:44;7.80;;;4.22;;
37517;SDS011;23366;52.498;13.446;2023-11-21T09:28:11;5.97;;;2.83;;
37517;SDS011;23366;52.498;13.446;2023-11-21T09:30:37;13.30;;;3.95;;
37517;SDS011;23366;52.498;13.446;2023-11-21T09:33:03;9.95;;;4.18;;
37517;SDS011;23366;52.498;13.446;2023-11-21T09:35:35;13.50;;;4.45;;
37517;SDS011;23366;52.498;13.446;2023-11-21T09:38:01;4.53;;;2.92;;
37517;SDS011;23366;52.498;13.446;2023-11-21T09:40:30;3.47;;;1.83;;
37517;SDS011;23366;52.498;13.446;2023-11-21T09:42:57;6.00;;;3.30;;
37517;SDS011;23366;52.498;13.446;2023-11-21T09:45:25;6.75;;;3.20;;
37517;SDS011;23366;52.498;13.446;2023-11-21T09:47:52;6.30;;;2.58;;
37517;SDS011;23366;52.498;13.446;2023-11-21T09:50:20;6.97;;;2.60;;
37517;SDS011;23366;52.498;13.446;2023-11-21T09:55:32;5.55;;;2.25;;
37517;SDS011;23366;52.498;13.446;2023-11-21T09:58:01;7.10;;;1.85;;
37517;SDS011;23366;52.498;13.446;2023-11-21T10:00:28;2.92;;;2.17;;
37517;SDS011;23366;52.498;13.446;2023-11-21T10:02:55;3.78;;;1.48;;
37517;SDS011;23366;52.498;13.446;2023-11-21T10:05:23;3.53;;;1.40;;
37517;SDS011;23366;52.498;13.446;2023-11-21T10:07:50;6.95;;;1.40;;
37517;SDS011;23366;52.498;13.446;2023-11-21T10:10:18;2.17;;;0.90;;
37517;SDS011;23366;52.498;13.446;2023-11-21T10:12:54;2.20;;;1.23;;
37517;SDS011;23366;52.498;13.446;2023-11-21T10:15:21;2.38;;;1.23;;
37517;SDS011;23366;52.498;13.446;2023-11-21T10:17:48;2.70;;;1.23;;
37517;SDS011;23366;52.498;13.446;2023-11-21T10:20:14;3.67;;;1.45;;
37517;SDS011;23366;52.498;13.446;2023-11-21T10:22:41;1.13;;;0.75;;
37517;SDS011;23366;52.498;13.446;2023-11-21T10:25:07;4.97;;;1.30;;
37517;SDS011;23366;52.498;13.446;2023-11-21T10:27:37;1.27;;;0.88;;
37517;SDS011;23366;52.498;13.446;2023-11-21T10:30:06;1.25;;;0.98;;
37517;SDS011;23366;52.498;13.446;2023-11-21T10:32:33;5.28;;;1.25;;
37517;SDS011;23366;52.498;13.446;2023-11-21T10:34:59;2.45;;;1.20;;
37517;SDS011;23366;52.498;13.446;2023-11-21T10:37:27;1.48;;;1.20;;
37517;SDS011;23366;52.498;13.446;2023-11-21T10:39:59;1.85;;;1.48;;
37517;SDS011;23366;52.498;13.446;2023-11-21T10:42:25;3.72;;;1.85;;
37517;SDS011;23366;52.498;13.446;2023-11-21T10:44:52;2.63;;;1.48;;
37517;SDS011;23366;52.498;13.446;2023-11-21T10:47:18;3.50;;;1.60;;
37517;SDS011;23366;52.498;13.446;2023-11-21T10:49:45;2.65;;;1.27;;
37517;SDS011;23366;52.498;13.446;2023-11-21T10:52:13;2.08;;;1.20;;
37517;SDS011;23366;52.498;13.446;2023-11-21T10:54:42;1.85;;;1.20;;
37517;SDS011;23366;52.498;13.446;2023-11-21T10:57:08;2.20;;;1.60;;
37517;SDS011;23366;52.498;13.446;2023-11-21T10:59:35;3.15;;;1.50;;
37517;SDS011;23366;52.498;13.446;2023-11-21T11:02:02;2.85;;;1.42;;
37517;SDS011;23366;52.498;13.446;2023-11-21T11:04:33;2.53;;;1.52;;
37517;SDS011;23366;52.498;13.446;2023-11-21T11:07:03;2.47;;;1.40;;
37517;SDS011;23366;52.498;13.446;2023-11-21T11:09:31;3.55;;;2.28;;
37517;SDS011;23366;52.498;13.446;2023-11-21T11:12:01;2.30;;;1.48;;
37517;SDS011;23366;52.498;13.446;2023-11-21T11:14:27;2.25;;;1.77;;
37517;SDS011;23366;52.498;13.446;2023-11-21T11:16:54;2.35;;;1.38;;
37517;SDS011;23366;52.498;13.446;2023-11-21T11:19:24;45.88;;;19.63;;
37517;SDS011;23366;52.498;13.446;2023-11-21T11:27:01;4.07;;;3.15;;
37517;SDS011;23366;52.498;13.446;2023-11-21T11:29:35;5.10;;;2.78;;
37517;SDS011;23366;52.498;13.446;2023-11-21T11:32:16;2.05;;;1.67;;
37517;SDS011;23366;52.498;13.446;2023-11-21T11:37:18;2.33;;;2.00;;
37517;SDS011;23366;52.498;13.446;2023-11-21T11:39:44;3.30;;;2.33;;
37517;SDS011;23366;52.498;13.446;2023-11-21T11:42:14;2.95;;;2.00;;
37517;SDS011;23366;52.498;13.446;2023-11-21T11:47:16;5.10;;;1.85;;
37517;SDS011;23366;52.498;13.446;2023-11-21T11:52:42;3.35;;;2.83;;
37517;SDS011;23366;52.498;13.446;2023-11-21T11:55:11;3.42;;;2.45;;
37517;SDS011;23366;52.498;13.446;2023-11-21T11:57:47;1.90;;;1.70;;
37517;SDS011;23366;52.498;13.446;2023-11-21T12:02:48;4.45;;;2.22;;
37517;SDS011;23366;52.498;13.446;2023-11-21T12:05:15;2.80;;;1.73;;
37517;SDS011;23366;52.498;13.446;2023-11-21T12:07:43;4.45;;;2.13;;
37517;SDS011;23366;52.498;13.446;2023-11-21T12:10:11;2.88;;;2.35;;
37517;SDS011;23366;52.498;13.446;2023-11-21T12:12:41;4.18;;;2.03;;
37517;SDS011;23366;52.498;13.446;2023-11-21T12:15:08;8.38;;;3.17;;
37517;SDS011;23366;52.498;13.446;2023-11-21T12:17:35;3.05;;;2.10;;
37517;SDS011;23366;52.498;13.446;2023-11-21T12:20:01;1.95;;;1.42;;
37517;SDS011;23366;52.498;13.446;2023-11-21T12:22:29;2.95;;;2.10;;
37517;SDS011;23366;52.498;13.446;2023-11-21T12:24:55;1.80;;;1.10;;
37517;SDS011;23366;52.498;13.446;2023-11-21T12:27:21;3.80;;;2.58;;
37517;SDS011;23366;52.498;13.446;2023-11-21T12:29:47;2.58;;;1.60;;
37517;SDS011;23366;52.498;13.446;2023-11-21T12:32:13;3.92;;;2.28;;
37517;SDS011;23366;52.498;13.446;2023-11-21T12:34:41;2.05;;;1.27;;
37517;SDS011;23366;52.498;13.446;2023-11-21T12:37:07;3.20;;;1.60;;
37517;SDS011;23366;52.498;13.446;2023-11-21T12:39:33;2.38;;;1.58;;
37517;SDS011;23366;52.498;13.446;2023-11-21T12:41:59;1.90;;;1.05;;
37517;SDS011;23366;52.498;13.446;2023-11-21T12:44:25;2.78;;;1.25;;
37517;SDS011;23366;52.498;13.446;2023-11-21T12:46:51;1.75;;;1.30;;
37517;SDS011;23366;52.498;13.446;2023-11-21T12:49:18;3.33;;;1.60;;
37517;SDS011;23366;52.498;13.446;2023-11-21T12:51:45;4.47;;;1.38;;
37517;SDS011;23366;52.498;13.446;2023-11-21T12:54:11;1.63;;;1.52;;
37517;SDS011;23366;52.498;13.446;2023-11-21T12:56:38;2.20;;;1.73;;
37517;SDS011;23366;52.498;13.446;2023-11-21T12:59:04;4.22;;;1.83;;
37517;SDS011;23366;52.498;13.446;2023-11-21T13:01:30;1.77;;;1.45;;
37517;SDS011;23366;52.498;13.446;2023-11-21T13:03:57;3.72;;;1.70;;
37517;SDS011;23366;52.498;13.446;2023-11-21T13:06:23;4.68;;;1.90;;
37517;SDS011;23366;52.498;13.446;2023-11-21T13:08:51;3.17;;;1.73;;
37517;SDS011;23366;52.498;13.446;2023-11-21T13:11:17;2.08;;;1.33;;
37517;SDS011;23366;52.498;13.446;2023-11-21T13:13:43;5.47;;;1.35;;
37517;SDS011;23366;52.498;13.446;2023-11-21T13:16:10;4.05;;;1.98;;
37517;SDS011;23366;52.498;13.446;2023-11-21T13:18:36;1.85;;;1.52;;
37517;SDS011;23366;52.498;13.446;2023-11-21T13:21:04;3.17;;;2.25;;
37517;SDS011;23366;52.498;13.446;2023-11-21T13:23:42;2.85;;;1.50;;
37517;SDS011;23366;52.498;13.446;2023-11-21T13:26:10;3.30;;;2.17;;
37517;SDS011;23366;52.498;13.446;2023-11-21T13:28:37;5.30;;;2.40;;
37517;SDS011;23366;52.498;13.446;2023-11-21T13:31:05;4.05;;;1.95;;
37517;SDS011;23366;52.498;13.446;2023-11-21T13:33:37;5.38;;;3.05;;
37517;SDS011;23366;52.498;13.446;2023-11-21T13:36:06;3.28;;;2.30;;
37517;SDS011;23366;52.498;13.446;2023-11-21T13:38:34;4.75;;;2.47;;
37517;SDS011;23366;52.498;13.446;2023-11-21T13:41:02;8.23;;;3.53;;
37517;SDS011;23366;52.498;13.446;2023-11-21T13:43:32;5.25;;;3.00;;
37517;SDS011;23366;52.498;13.446;2023-11-21T13:45:58;7.90;;;3.65;;
37517;SDS011;23366;52.498;13.446;2023-11-21T13:48:28;8.27;;;4.00;;
37517;SDS011;23366;52.498;13.446;2023-11-21T13:51:02;4.68;;;3.78;;
37517;SDS011;23366;52.498;13.446;2023-11-21T13:53:42;6.38;;;2.78;;
37517;SDS011;23366;52.498;13.446;2023-11-21T13:56:09;4.82;;;2.70;;
37517;SDS011;23366;52.498;13.446;2023-11-21T13:58:36;6.00;;;3.70;;
37517;SDS011;23366;52.498;13.446;2023-11-21T14:01:17;8.95;;;3.42;;
37517;SDS011;23366;52.498;13.446;2023-11-21T14:04:07;8.23;;;3.60;;
37517;SDS011;23366;52.498;13.446;2023-11-21T14:06:47;6.40;;;3.28;;
37517;SDS011;23366;52.498;13.446;2023-11-21T14:09:23;6.55;;;3.03;;
37517;SDS011;23366;52.498;13.446;2023-11-21T14:12:00;8.20;;;4.03;;
37517;SDS011;23366;52.498;13.446;2023-11-21T14:14:31;6.93;;;3.92;;
37517;SDS011;23366;52.498;13.446;2023-11-21T14:16:57;5.97;;;4.13;;
37517;SDS011;23366;52.498;13.446;2023-11-21T14:19:31;8.07;;;4.20;;
37517;SDS011;23366;52.498;13.446;2023-11-21T14:21:58;10.82;;;5.30;;
37517;SDS011;23366;52.498;13.446;2023-11-21T14:24:24;8.93;;;5.45;;
37517;SDS011;23366;52.498;13.446;2023-11-21T14:26:50;13.10;;;7.13;;
37517;SDS011;23366;52.498;13.446;2023-11-21T14:29:17;10.35;;;6.25;;
37517;SDS011;23366;52.498;13.446;2023-11-21T14:34:15;11.27;;;6.53;;
37517;SDS011;23366;52.498;13.446;2023-11-21T14:36:41;11.35;;;6.70;;
37517;SDS011;23366;52.498;13.446;2023-11-21T14:39:09;12.48;;;6.53;;
37517;SDS011;23366;52.498;13.446;2023-11-21T14:41:48;10.45;;;6.68;;
37517;SDS011;23366;52.498;13.446;2023-11-21T14:44:14;15.70;;;8.07;;
37517;SDS011;23366;52.498;13.446;2023-11-21T14:46:40;14.23;;;7.78;;
37517;SDS011;23366;52.498;13.446;2023-11-21T14:49:11;16.50;;;8.68;;